메인 페이지
METAR-TAF:

METAR-TAF

공항 :

루사카 국제공항

루사카, 잠비아

위도: 15-19-51S, 경도: 028-27-09E, 고도: 1152m

현재 날씨관측

예보는 56분 전, 08:00시(UTC)에 발표되었습니다.
여러 방향의 바람 3kt
온도 24°C
습도 74%
기압 1017 hPa
시정: 8000m
고도 1000ft 상공 구름 많음
고도 9000ft 상공 구름 많음

METAR: FLKK 090800Z VRB03KT 8000 RA BKN010 BKN090 24/19 Q1017

시각: 10:56 (08:56 UTC)

예보

예보는 28 시간 56분 전, 04:00시(UTC)에 발표되었습니다.
예보 대상 시간: 08일 06시부터 09일 12시까지 (UTC)
10kt
시정 10km 이상
고도 1000ft 상공 구름 많음
고도 10000ft 상공 구름 많음
약한이슬비
전환 중
08일 08시부터 08일 10시까지 (UTC)
고도 3500ft 상공 구름 많음, 타워링 적운.
확률 30% :
일시적
08일 12시부터 08일 17시까지 (UTC)
서북서10kt
시정: 9000m
고도 4000ft 상공 구름 조금, 적란운.
고도 9000ft 상공 구름 많음
뇌우, 약한비
전환 중
08일 18시부터 08일 20시까지 (UTC)
여러 방향의 바람 3kt
시정 10km 이상
구름 조금 , 적란운.

TAF: FLKK 080400Z 0806/0912 09010KT 9999 -DZ BKN010 BKN100 BECMG 0808/0810 BKN035TCU PROB30 TEMPO 0812/0817 29010KT 9000 -TSRA FEW040CB BKN090 BECMG 0818/0820 VRB03KT 9999 FEW///CB

4,000개 이상의 공항 관측 자료 및 예보 (METAR 및 TAF 보고).

지도상에서 검색 가능한 기상관측소가 노란 점과 빨간 점으로 표시되어 있습니다.

기상관측소 명을 보려면 표시 위로 마우스를 이동하세요.

날씨 관측과 예보를 보려면 클릭하세요.

지도 변경 : 확대하려면 엑스 표시가 있는 녹색 버튼, 축소하려면 빼기 표시가 있는 녹색 버튼, 다음 페이지의 지도를 보려면 녹색 화살표를 클릭하세요.


METAR-TAF: